K&a Sp — 3FVZ3 — position and weather

sailwx.info

Track history (hours):
 
Tides and Currents Weather Stations Pressure Air Temp Water Temp Dewpoint Dewpoint Depression Visibility Wind Speed Wind Dir Waves Ship Positions

K&a Sp

Last reported at 2016-Sep-26 15:33 UTC. Time now 2016-Sep-28 03:29 UTC.
Position N 31°27' E 121°28'.

Length 177 m; draft 7 m.

Type: Cargo ship. MMSI: 354085000.

Date/timePositionNaut miles runAvg speedWind from/ knotsBaromVisibWave heightAir tempDewpointWater temp
2016-Sep-26 15:33N 31°27' E 121°28'2210.9
2016-Sep-26 13:34N 31°42' E 121°09'40 7.9
2016-Sep-26 08:29N 31°58' E 120°26'0 0.0
2016-Sep-26 02:32N 31°58' E 120°26'0 0.0
2016-Sep-26 01:32N 31°58' E 120°26'0 0.0
2016-Sep-26 00:29N 31°58' E 120°26'0 0.0
2016-Sep-25 21:29N 31°58' E 120°26'0 0.0
2016-Sep-25 17:29N 31°58' E 120°26'0 0.0
2016-Sep-25 16:32N 31°58' E 120°26'0 0.0
2016-Sep-25 15:29N 31°58' E 120°26'0 0.0
2016-Sep-25 14:30N 31°58' E 120°26'0 0.0
2016-Sep-25 12:32N 31°58' E 120°26'0 0.0
2016-Sep-25 11:29N 31°58' E 120°26'0 0.0
2016-Sep-25 10:32N 31°58' E 120°26'0 0.0
2016-Sep-25 09:32N 31°58' E 120°26'0 0.0
2016-Sep-25 07:32N 31°58' E 120°26'0 0.0
2016-Sep-25 04:32N 31°58' E 120°26'0 0.0
2016-Sep-25 00:30N 31°58' E 120°26'0 0.0
2016-Sep-24 22:32N 31°58' E 120°26'0 0.0
2016-Sep-24 21:17N 31°58' E 120°26'0 0.0
2016-Sep-24 19:32N 31°58' E 120°26'0 0.0
2016-Sep-24 18:32N 31°58' E 120°26'0 0.0
2016-Sep-24 17:32N 31°58' E 120°26'0 0.0
2016-Sep-24 16:29N 31°58' E 120°26'0 0.0
2016-Sep-24 14:32N 31°58' E 120°26'1 0.3
2016-Sep-24 12:33N 31°59' E 120°27'  
2016-Sep-22 04:33N 32°01' E 120°32'45 8.3
2016-Sep-21 23:05N 31°37' E 121°17'610.2
2016-Sep-21 22:28N 31°32' E 121°22'26 8.9
2016-Sep-21 19:33N 31°18' E 121°47'  
Track history (hours):
 
Tides and Currents Weather Stations Pressure Air Temp Water Temp Dewpoint Dewpoint Depression Visibility Wind Speed Wind Dir Waves Ship Positions

K&a Sp

Last reported at 2016-Sep-26 15:33 UTC. Time now 2016-Sep-28 03:29 UTC.
Position N 31°27' E 121°28'.

Length 177 m; draft 7 m.

Type: Cargo ship. MMSI: 354085000.

Date/timePositionNaut miles runAvg speedWind from/ knotsBaromVisibWave heightAir tempDewpointWater temp
2016-Sep-26 15:33N 31°27' E 121°28'2210.9
2016-Sep-26 13:34N 31°42' E 121°09'40 7.9
2016-Sep-26 08:29N 31°58' E 120°26'0 0.0
2016-Sep-26 02:32N 31°58' E 120°26'0 0.0
2016-Sep-26 01:32N 31°58' E 120°26'0 0.0
2016-Sep-26 00:29N 31°58' E 120°26'0 0.0
2016-Sep-25 21:29N 31°58' E 120°26'0 0.0
2016-Sep-25 17:29N 31°58' E 120°26'0 0.0
2016-Sep-25 16:32N 31°58' E 120°26'0 0.0
2016-Sep-25 15:29N 31°58' E 120°26'0 0.0
2016-Sep-25 14:30N 31°58' E 120°26'0 0.0
2016-Sep-25 12:32N 31°58' E 120°26'0 0.0
2016-Sep-25 11:29N 31°58' E 120°26'0 0.0
2016-Sep-25 10:32N 31°58' E 120°26'0 0.0
2016-Sep-25 09:32N 31°58' E 120°26'0 0.0
2016-Sep-25 07:32N 31°58' E 120°26'0 0.0
2016-Sep-25 04:32N 31°58' E 120°26'0 0.0
2016-Sep-25 00:30N 31°58' E 120°26'0 0.0
2016-Sep-24 22:32N 31°58' E 120°26'0 0.0
2016-Sep-24 21:17N 31°58' E 120°26'0 0.0
2016-Sep-24 19:32N 31°58' E 120°26'0 0.0
2016-Sep-24 18:32N 31°58' E 120°26'0 0.0
2016-Sep-24 17:32N 31°58' E 120°26'0 0.0
2016-Sep-24 16:29N 31°58' E 120°26'0 0.0
2016-Sep-24 14:32N 31°58' E 120°26'1 0.3
2016-Sep-24 12:33N 31°59' E 120°27'  
2016-Sep-22 04:33N 32°01' E 120°32'45 8.3
2016-Sep-21 23:05N 31°37' E 121°17'610.2
2016-Sep-21 22:28N 31°32' E 121°22'26 8.9
2016-Sep-21 19:33N 31°18' E 121°47'  

Dump ship's entire track history